首页
METAR-TAF:

METAR-TAF

机场 :

布鲁塞尔机场

布鲁塞尔, 比利时

纬度: 50-54N, 经度: 004-32E, 海拔: 55米

当前天气观测

该预报发布于34分钟前的18:50 UTC
风速3节,风向
温度 10°C
湿度 76%
气压 1035 hPa
能见度10公里或以上
1500米以下无云,无积雨云

METAR: EBBR 221850Z 35003KT CAVOK 10/06 Q1035 NOSIG

时间: 21:24 (19:24 UTC)

预报

该预报发布于2小时和4分钟前的17:20 UTC
预报有效从22日的 18点(UTC)到 23日的 24点(UTC)
风速5节,风向
能见度10公里或以上
散云层高于4000英尺
成为
从 22日的 22点(UTC)到 22日的 24点(UTC)
风速6节,风向西转西南
成为
从 23日的 08点(UTC)到 23日的 10点(UTC)
散云层高于800英尺
多云层高于1200英尺
几率 30% :
短暂存在
从 23日的 14点(UTC)到 23日的 24点(UTC)
多云层高于800英尺

TAF: EBBR 221720Z 2218/2324 35005KT 9999 SCT040 BECMG 2222/2224 24006KT BECMG 2308/2310 SCT008 BKN012 PROB30 TEMPO 2314/2324 BKN008

超过4000个机场的气象观测和天气预报(METAR&TAF报告)。

可查询的气象台以黄色和红色小点在地图上表示。

将鼠标移到小点上方,可查看气象台名称。

然后点击查看天气观测和预报。

如需切换地图:点击带黑十字的绿色按钮放大地图;点击带横线的绿色按钮缩小地图;或者点击绿色箭头查看邻近地区的地图。


METAR-TAF: